createdAt,value
2017-08-14T00:00:20.379Z,19.03
2017-08-14T00:02:49.544Z,27.47
2017-08-14T00:05:17.938Z,25.47
2017-08-14T00:07:46.338Z,22.13
2017-08-14T00:10:14.748Z,26.20
2017-08-14T00:12:43.252Z,29.33
2017-08-14T00:15:11.693Z,25.03
2017-08-14T00:17:40.060Z,20.27
2017-08-14T00:20:08.429Z,20.43
2017-08-14T00:22:38.659Z,21.60
2017-08-14T00:25:07.047Z,21.90
2017-08-14T00:27:35.477Z,25.60
2017-08-14T00:30:03.860Z,22.73
2017-08-14T00:32:32.233Z,20.90
2017-08-14T00:35:00.637Z,24.33
2017-08-14T00:37:30.180Z,30.53
2017-08-14T00:39:58.695Z,20.70
2017-08-14T00:42:27.119Z,22.13
2017-08-14T00:44:56.291Z,27.73
2017-08-14T00:47:24.711Z,25.07
2017-08-14T00:49:53.144Z,26.50
2017-08-14T00:52:21.528Z,23.20
2017-08-14T00:54:49.948Z,21.77
2017-08-14T00:57:18.322Z,20.70
2017-08-14T00:59:46.737Z,25.03
2017-08-14T01:02:15.810Z,24.23
2017-08-14T01:04:46.114Z,29.40
2017-08-14T01:07:14.846Z,25.10
2017-08-14T01:09:43.812Z,23.43
2017-08-14T01:12:12.239Z,24.27
2017-08-14T01:14:40.610Z,20.50
2017-08-14T01:17:09.060Z,21.77
2017-08-14T01:19:37.462Z,24.83
2017-08-14T01:22:07.022Z,25.47
2017-08-14T01:24:35.703Z,20.97
2017-08-14T01:27:04.327Z,28.10
2017-08-14T01:29:32.919Z,25.07
2017-08-14T01:32:01.538Z,25.60
2017-08-14T01:34:30.670Z,25.50
2017-08-14T01:36:59.093Z,29.97
2017-08-14T01:39:27.442Z,24.10
2017-08-14T01:41:55.911Z,21.50
2017-08-14T01:44:24.319Z,26.47
2017-08-14T01:46:52.688Z,20.90
2017-08-14T01:49:22.767Z,30.93
2017-08-14T01:51:52.067Z,25.13
2017-08-14T01:54:20.737Z,28.33
2017-08-14T01:56:49.157Z,28.30
2017-08-14T01:59:17.515Z,24.50
2017-08-14T02:01:45.926Z,29.43
2017-08-14T02:04:14.272Z,23.20
2017-08-14T02:06:42.621Z,25.67
2017-08-14T02:09:11.798Z,34.87
2017-08-14T02:11:40.343Z,28.53
2017-08-14T02:14:08.731Z,24.27
2017-08-14T02:16:37.450Z,24.50
2017-08-14T02:19:05.851Z,28.63
2017-08-14T02:21:34.198Z,25.27
2017-08-14T02:24:02.658Z,32.33
2017-08-14T02:26:31.059Z,27.17
2017-08-14T02:28:59.421Z,25.77
2017-08-14T02:31:28.468Z,29.07
2017-08-14T02:33:56.895Z,33.40
2017-08-14T02:36:26.132Z,32.83
2017-08-14T02:38:55.421Z,22.80
2017-08-14T02:41:23.827Z,32.77
2017-08-14T02:43:52.993Z,25.60
2017-08-14T02:46:21.360Z,27.57
2017-08-14T02:48:49.739Z,36.53
2017-08-14T02:51:18.131Z,30.07
2017-08-14T02:53:46.489Z,28.97
2017-08-14T02:56:14.872Z,32.03
2017-08-14T02:58:43.223Z,25.47
2017-08-14T03:01:11.639Z,29.50
2017-08-14T03:03:41.036Z,27.37
2017-08-14T03:06:09.479Z,26.13
2017-08-14T03:08:37.821Z,26.77
2017-08-14T03:11:06.176Z,27.00
2017-08-14T03:13:36.231Z,33.33
2017-08-14T03:16:06.372Z,25.20
2017-08-14T03:18:34.773Z,26.40
2017-08-14T03:21:03.142Z,35.70
2017-08-14T03:23:31.594Z,29.67
2017-08-14T03:26:00.538Z,32.03
2017-08-14T03:28:29.075Z,32.20
2017-08-14T03:30:57.440Z,30.00
2017-08-14T03:33:25.822Z,25.17
2017-08-14T03:35:54.197Z,27.23
2017-08-14T03:38:22.937Z,27.83
2017-08-14T03:40:51.297Z,32.60
2017-08-14T03:43:19.679Z,30.93
2017-08-14T03:45:48.099Z,33.40
2017-08-14T03:48:16.467Z,37.47
2017-08-14T03:50:44.909Z,27.53
2017-08-14T03:53:13.264Z,27.83
2017-08-14T03:55:42.331Z,31.30
2017-08-14T03:58:12.228Z,29.27
2017-08-14T04:00:40.639Z,30.13
2017-08-14T04:03:09.769Z,27.47
2017-08-14T04:05:38.641Z,32.43
2017-08-14T04:08:07.063Z,32.80
2017-08-14T04:10:35.410Z,35.50
2017-08-14T04:13:03.879Z,26.27
2017-08-14T04:15:32.259Z,33.83
2017-08-14T04:18:00.651Z,27.37
2017-08-14T04:20:29.087Z,31.67
2017-08-14T04:22:57.512Z,31.77
2017-08-14T04:25:25.905Z,31.10
2017-08-14T04:27:54.312Z,28.60
2017-08-14T04:30:22.719Z,26.93
2017-08-14T04:32:51.849Z,29.23
2017-08-14T04:35:20.280Z,31.00
2017-08-14T04:37:49.427Z,32.43
2017-08-14T04:40:18.364Z,37.73
2017-08-14T04:42:47.217Z,32.33
2017-08-14T04:45:15.571Z,28.63
2017-08-14T04:47:44.346Z,37.20
2017-08-14T04:50:12.776Z,35.80
2017-08-14T04:52:41.201Z,31.17
2017-08-14T04:55:09.565Z,33.30
2017-08-14T04:57:37.983Z,29.77
2017-08-14T05:00:06.382Z,33.80
2017-08-14T05:02:34.774Z,29.13
2017-08-14T05:05:03.229Z,27.57
2017-08-14T05:07:31.613Z,33.93
2017-08-14T05:09:59.989Z,22.47
2017-08-14T05:12:28.408Z,24.93
2017-08-14T05:14:56.752Z,24.10
2017-08-14T05:17:25.220Z,20.70
2017-08-14T05:19:53.607Z,20.13
2017-08-14T05:22:21.977Z,27.40
2017-08-14T05:24:50.402Z,22.93
2017-08-14T05:27:18.812Z,31.17
2017-08-14T05:29:48.036Z,18.20
2017-08-14T05:32:16.491Z,17.50
2017-08-14T05:34:44.907Z,14.87
2017-08-14T05:37:13.315Z,17.00
2017-08-14T05:39:41.709Z,20.50
2017-08-14T05:42:10.124Z,14.20
2017-08-14T05:44:38.547Z,19.33
2017-08-14T05:47:06.967Z,14.73
2017-08-14T05:49:35.356Z,13.07
2017-08-14T05:52:03.709Z,13.33
2017-08-14T05:54:32.119Z,17.50
2017-08-14T05:57:00.476Z,12.13
2017-08-14T05:59:29.605Z,13.60
2017-08-14T06:01:58.093Z,13.80
2017-08-14T06:04:26.521Z,11.40
2017-08-14T06:06:55.723Z,15.10
2017-08-14T06:09:24.170Z,12.73
2017-08-14T06:11:52.536Z,13.73
2017-08-14T06:14:20.928Z,12.90
2017-08-14T06:16:49.366Z,9.40
2017-08-14T06:19:17.717Z,7.70
2017-08-14T06:21:46.080Z,10.87
2017-08-14T06:24:14.491Z,8.77
2017-08-14T06:26:42.867Z,8.23
2017-08-14T06:29:11.979Z,6.30
2017-08-14T06:31:40.379Z,6.83
2017-08-14T06:34:08.825Z,8.60
2017-08-14T06:36:37.226Z,8.27
2017-08-14T06:39:05.697Z,10.17
2017-08-14T06:41:34.049Z,11.20
2017-08-14T06:44:03.147Z,6.87
2017-08-14T06:46:32.327Z,8.47
2017-08-14T06:49:00.813Z,6.10
2017-08-14T06:51:29.268Z,7.30
2017-08-14T06:53:57.654Z,9.00
2017-08-14T06:56:26.441Z,8.70
2017-08-14T06:58:54.799Z,9.27
2017-08-14T07:01:23.150Z,5.80
2017-08-14T07:03:51.683Z,12.13
2017-08-14T07:06:20.178Z,5.87
2017-08-14T07:08:49.412Z,5.23
2017-08-14T07:11:17.788Z,8.53
2017-08-14T07:13:46.158Z,6.20
2017-08-14T07:16:14.662Z,4.77
2017-08-14T07:18:47.649Z,5.33
2017-08-14T07:21:24.264Z,5.00
2017-08-14T07:23:52.632Z,6.60
2017-08-14T07:26:21.046Z,5.73
2017-08-14T07:28:49.414Z,5.93
2017-08-14T07:31:17.780Z,7.00
2017-08-14T07:33:46.170Z,4.67
2017-08-14T07:36:14.648Z,4.60
2017-08-14T07:38:43.075Z,5.50
2017-08-14T07:41:11.401Z,3.50
2017-08-14T07:43:39.913Z,6.57
2017-08-14T07:46:08.293Z,3.67
2017-08-14T07:48:36.690Z,6.00
2017-08-14T07:51:05.045Z,5.43
2017-08-14T07:53:33.425Z,4.73
2017-08-14T07:56:01.868Z,7.20
2017-08-14T07:58:30.218Z,6.90
2017-08-14T08:01:00.398Z,4.83
2017-08-14T08:03:29.349Z,6.07
2017-08-14T08:05:58.696Z,4.17
2017-08-14T08:08:27.086Z,3.40
2017-08-14T08:10:55.495Z,5.70
2017-08-14T08:13:23.953Z,4.10
2017-08-14T08:15:52.319Z,7.23
2017-08-14T08:18:20.724Z,8.00
2017-08-14T08:20:49.082Z,6.30
2017-08-14T08:23:17.488Z,4.57
2017-08-14T08:25:45.880Z,10.23
2017-08-14T08:28:14.280Z,6.13
2017-08-14T08:30:43.437Z,6.87
2017-08-14T08:33:11.809Z,4.37
2017-08-14T08:35:40.172Z,7.60
2017-08-14T08:38:08.553Z,7.63
2017-08-14T08:40:36.976Z,7.57
2017-08-14T08:43:05.325Z,5.27
2017-08-14T08:45:34.569Z,5.63
2017-08-14T08:48:04.480Z,4.77
2017-08-14T08:50:33.648Z,5.20
2017-08-14T08:53:02.040Z,3.53
2017-08-14T08:55:30.443Z,6.77
2017-08-14T08:57:59.626Z,4.33
2017-08-14T09:00:27.987Z,4.70
2017-08-14T09:02:56.382Z,5.70
2017-08-14T09:05:24.769Z,11.00
2017-08-14T09:07:53.160Z,4.77
2017-08-14T09:10:22.304Z,6.77
2017-08-14T09:12:50.720Z,7.20
2017-08-14T09:15:19.280Z,6.60
2017-08-14T09:17:47.686Z,7.17
2017-08-14T09:20:16.201Z,6.30
2017-08-14T09:22:44.589Z,10.33
2017-08-14T09:25:13.090Z,8.90
2017-08-14T09:27:41.465Z,7.70
2017-08-14T09:30:09.871Z,6.50
2017-08-14T09:32:38.241Z,13.00
2017-08-14T09:35:06.724Z,8.27
2017-08-14T09:37:35.812Z,8.13
2017-08-14T09:40:04.375Z,6.63
2017-08-14T09:42:32.791Z,7.43
2017-08-14T09:45:02.074Z,8.50
2017-08-14T09:47:30.418Z,6.70
2017-08-14T09:49:58.832Z,11.00
2017-08-14T09:52:27.188Z,7.83
2017-08-14T09:54:55.560Z,12.70
2017-08-14T09:57:24.001Z,8.43
2017-08-14T09:59:52.435Z,6.13
2017-08-14T10:02:20.795Z,11.60
2017-08-14T10:04:49.193Z,8.40
2017-08-14T10:07:17.533Z,7.90
2017-08-14T10:09:45.976Z,5.67
2017-08-14T10:12:15.146Z,9.03
2017-08-14T10:14:45.892Z,8.67
2017-08-14T10:17:14.289Z,5.97
2017-08-14T10:19:44.307Z,5.03
2017-08-14T10:22:12.748Z,6.20
2017-08-14T10:24:41.200Z,5.93
2017-08-14T10:27:09.590Z,7.30
2017-08-14T10:29:38.063Z,8.73
2017-08-14T10:32:06.465Z,5.03
2017-08-14T10:34:35.078Z,6.23
2017-08-14T10:37:04.354Z,11.20
2017-08-14T10:39:32.737Z,6.80
2017-08-14T10:42:01.277Z,4.37
2017-08-14T10:44:29.640Z,6.57
2017-08-14T10:46:58.009Z,5.83
2017-08-14T10:49:26.456Z,9.63
2017-08-14T10:51:54.878Z,5.23
2017-08-14T10:54:23.401Z,3.90
2017-08-14T10:56:52.608Z,7.10
2017-08-14T10:59:23.085Z,4.30
2017-08-14T11:01:51.639Z,17.60
2017-08-14T11:04:20.119Z,3.60
2017-08-14T11:06:49.329Z,3.80
2017-08-14T11:09:18.639Z,3.73
2017-08-14T11:11:47.497Z,5.63
2017-08-14T11:14:15.917Z,2.80
2017-08-14T11:16:44.313Z,3.37
2017-08-14T11:19:12.715Z,3.83
2017-08-14T11:21:41.104Z,4.03
2017-08-14T11:24:09.540Z,6.50
2017-08-14T11:26:37.908Z,3.67
2017-08-14T11:29:06.454Z,13.40
2017-08-14T11:31:35.595Z,4.00
2017-08-14T11:34:04.032Z,4.97
2017-08-14T11:36:32.626Z,4.83
2017-08-14T11:39:01.798Z,4.23
2017-08-14T11:41:30.164Z,5.60
2017-08-14T11:43:59.218Z,6.83
2017-08-14T11:46:27.599Z,7.50
2017-08-14T11:48:56.028Z,4.07
2017-08-14T11:51:24.491Z,3.00
2017-08-14T11:53:52.900Z,4.03
2017-08-14T11:56:21.320Z,6.00
2017-08-14T11:58:49.689Z,2.60
2017-08-14T12:01:18.095Z,2.20
2017-08-14T12:03:46.504Z,3.23
2017-08-14T12:06:14.913Z,6.37
2017-08-14T12:08:43.299Z,6.57
2017-08-14T12:11:11.724Z,47.43
2017-08-14T12:13:40.120Z,7.30
2017-08-14T12:16:08.599Z,8.03
2017-08-14T12:18:36.992Z,7.43
2017-08-14T12:21:06.291Z,4.10
2017-08-14T12:23:34.681Z,5.87
2017-08-14T12:26:04.486Z,2.07
2017-08-14T12:28:32.855Z,6.47
2017-08-14T12:31:01.883Z,11.80
2017-08-14T12:33:30.303Z,23.33
2017-08-14T12:35:58.679Z,10.17
2017-08-14T12:38:27.072Z,10.60
2017-08-14T12:40:55.432Z,2.17
2017-08-14T12:43:23.866Z,3.20
2017-08-14T12:45:53.012Z,4.13
2017-08-14T12:48:21.544Z,10.80
2017-08-14T12:50:50.099Z,3.33
2017-08-14T12:53:18.460Z,1.80
2017-08-14T12:55:47.209Z,1.80
2017-08-14T12:58:15.588Z,3.30
2017-08-14T13:00:44.059Z,3.47
2017-08-14T13:03:12.456Z,3.50
2017-08-14T13:05:40.872Z,7.57
2017-08-14T13:08:09.313Z,2.77
2017-08-14T13:10:38.288Z,5.53
2017-08-14T13:13:07.440Z,4.60
2017-08-14T13:15:35.833Z,2.43
2017-08-14T13:18:04.296Z,2.80
2017-08-14T13:20:32.649Z,4.90
2017-08-14T13:23:01.052Z,3.13
2017-08-14T13:25:29.477Z,3.27
2017-08-14T13:27:57.875Z,2.60
2017-08-14T13:30:26.277Z,2.27
2017-08-14T13:32:54.645Z,2.30
2017-08-14T13:35:22.984Z,2.90
2017-08-14T13:37:52.184Z,2.47
2017-08-14T13:40:21.326Z,5.13
2017-08-14T13:42:49.742Z,11.40
2017-08-14T13:45:18.217Z,1.93
2017-08-14T13:47:47.174Z,7.83
2017-08-14T13:50:15.616Z,2.73
2017-08-14T13:52:44.752Z,3.33
2017-08-14T13:55:13.192Z,4.20
2017-08-14T13:57:43.170Z,2.70
2017-08-14T14:00:12.571Z,2.87
2017-08-14T14:02:41.028Z,3.50
2017-08-14T14:05:09.441Z,2.80
2017-08-14T14:07:37.854Z,7.20
2017-08-14T14:10:06.211Z,4.60
2017-08-14T14:12:34.676Z,3.10
2017-08-14T14:15:03.022Z,3.83
2017-08-14T14:17:31.385Z,3.10
2017-08-14T14:19:59.793Z,7.63
2017-08-14T14:22:28.200Z,2.63
2017-08-14T14:24:56.632Z,2.13
2017-08-14T14:27:25.188Z,4.77
2017-08-14T14:29:53.603Z,5.37
2017-08-14T14:32:22.049Z,4.00
2017-08-14T14:34:52.959Z,2.17
2017-08-14T14:37:22.806Z,2.60
2017-08-14T14:39:51.257Z,3.87
2017-08-14T14:42:19.659Z,3.20
2017-08-14T14:47:22.792Z,2.40
2017-08-14T14:49:51.195Z,2.67
2017-08-14T14:52:19.618Z,2.60
2017-08-14T14:54:48.032Z,2.63
2017-08-14T14:57:19.832Z,3.33
2017-08-14T14:59:54.093Z,2.50
2017-08-14T15:02:22.783Z,2.37
2017-08-14T15:04:51.187Z,7.23
2017-08-14T15:07:20.371Z,3.90
2017-08-14T15:09:48.771Z,2.70
2017-08-14T15:12:17.123Z,4.53
2017-08-14T15:14:45.515Z,2.60
2017-08-14T15:17:13.922Z,3.90
2017-08-14T15:19:42.315Z,2.57
2017-08-14T15:22:11.442Z,2.00
2017-08-14T15:24:39.843Z,1.70
2017-08-14T15:27:08.296Z,3.93
2017-08-14T15:29:36.689Z,2.60
2017-08-14T15:32:05.048Z,3.13
2017-08-14T15:34:33.433Z,1.70
2017-08-14T15:37:01.788Z,1.90
2017-08-14T15:39:30.933Z,3.10
2017-08-14T15:44:45.858Z,2.10
2017-08-14T15:47:14.230Z,7.87
2017-08-14T15:49:42.689Z,2.10
2017-08-14T15:52:11.117Z,2.00
2017-08-14T15:54:39.592Z,2.93
2017-08-14T15:57:08.047Z,3.87
2017-08-14T15:59:36.428Z,2.53
2017-08-14T16:02:04.832Z,2.13
2017-08-14T16:04:33.319Z,2.83
2017-08-14T16:07:01.778Z,8.30
2017-08-14T16:09:30.905Z,3.10
2017-08-14T16:11:59.335Z,2.33
2017-08-14T16:14:27.826Z,1.77
2017-08-14T16:16:56.296Z,4.97
2017-08-14T16:19:36.743Z,2.50
2017-08-14T16:22:05.090Z,2.60
2017-08-14T16:24:36.729Z,6.63
2017-08-14T16:27:05.830Z,3.67
2017-08-14T16:29:34.237Z,3.90
2017-08-14T16:32:02.816Z,3.60
2017-08-14T16:34:31.205Z,3.30
2017-08-14T16:36:59.620Z,2.00
2017-08-14T16:39:28.878Z,2.40
2017-08-14T16:41:57.270Z,4.70
2017-08-14T16:44:25.793Z,3.10
2017-08-14T16:46:54.416Z,3.23
2017-08-14T16:49:22.779Z,5.00
2017-08-14T16:51:51.190Z,7.23
2017-08-14T16:54:19.593Z,2.37
2017-08-14T16:56:47.921Z,2.60
2017-08-14T16:59:16.359Z,2.53
2017-08-14T17:01:44.777Z,2.77
2017-08-14T17:04:14.660Z,3.63
2017-08-14T17:06:43.061Z,2.93
2017-08-14T17:09:12.013Z,4.80
2017-08-14T17:11:40.406Z,4.60
2017-08-14T17:14:08.785Z,3.10
2017-08-14T17:16:37.936Z,3.43
2017-08-14T17:19:06.358Z,5.97
2017-08-14T17:21:35.526Z,3.97
2017-08-14T17:24:03.903Z,3.53
2017-08-14T17:26:32.261Z,3.40
2017-08-14T17:29:00.682Z,3.60
2017-08-14T17:31:29.861Z,3.53
2017-08-14T17:33:58.275Z,2.60
2017-08-14T17:36:27.420Z,4.30
2017-08-14T17:38:55.832Z,8.17
2017-08-14T17:41:24.269Z,5.20
2017-08-14T17:43:52.645Z,2.40
2017-08-14T17:46:20.984Z,3.53
2017-08-14T17:48:51.581Z,4.63
2017-08-14T17:51:20.852Z,2.97
2017-08-14T17:53:50.388Z,4.17
2017-08-14T17:56:18.798Z,2.17
2017-08-14T17:58:48.182Z,4.43
2017-08-14T18:01:16.558Z,3.77
2017-08-14T18:03:44.947Z,3.20
2017-08-14T18:06:13.344Z,3.57
2017-08-14T18:08:41.793Z,4.47
2017-08-14T18:11:10.146Z,3.77
2017-08-14T18:13:38.513Z,3.10
2017-08-14T18:16:08.069Z,7.80
2017-08-14T18:18:37.198Z,3.57
2017-08-14T18:21:05.619Z,3.43
2017-08-14T18:23:33.952Z,5.20
2017-08-14T18:26:02.378Z,8.53
2017-08-14T18:28:30.783Z,3.00
2017-08-14T18:30:59.166Z,6.13
2017-08-14T18:33:27.577Z,6.37
2017-08-14T18:35:56.907Z,10.27
2017-08-14T18:38:25.343Z,6.90
2017-08-14T18:40:53.746Z,3.17
2017-08-14T18:43:23.881Z,7.70
2017-08-14T18:45:52.271Z,11.30
2017-08-14T18:48:20.643Z,7.43
2017-08-14T18:50:49.062Z,6.10
2017-08-14T18:53:18.193Z,5.37
2017-08-14T18:55:46.587Z,10.27
2017-08-14T18:58:14.978Z,4.40
2017-08-14T19:00:43.377Z,5.50
2017-08-14T19:03:11.747Z,5.63
2017-08-14T19:05:40.154Z,7.70
2017-08-14T19:08:10.962Z,12.60
2017-08-14T19:10:37.791Z,13.67
2017-08-14T19:13:06.250Z,17.83
2017-08-14T19:15:35.376Z,20.23
2017-08-14T19:18:04.568Z,17.40
2017-08-14T19:20:33.019Z,14.83
2017-08-14T19:23:01.431Z,20.57
2017-08-14T19:25:29.864Z,11.57
2017-08-14T19:27:58.299Z,14.20
2017-08-14T19:30:26.688Z,7.87
2017-08-14T19:32:55.081Z,10.57
2017-08-14T19:35:23.500Z,4.77
2017-08-14T19:37:51.946Z,5.33
2017-08-14T19:40:20.313Z,5.60
2017-08-14T19:42:48.779Z,8.73
2017-08-14T19:45:17.961Z,6.93
2017-08-14T19:47:46.372Z,4.10
2017-08-14T19:50:14.832Z,6.03
2017-08-14T19:52:43.985Z,14.80
2017-08-14T19:55:12.642Z,5.27
2017-08-14T19:57:41.011Z,10.77
2017-08-14T20:00:10.540Z,11.37
2017-08-14T20:02:38.884Z,6.03
2017-08-14T20:05:08.876Z,5.80
2017-08-14T20:07:39.006Z,4.00
2017-08-14T20:10:07.592Z,13.43
2017-08-14T20:12:36.058Z,9.13
2017-08-14T20:15:04.472Z,4.50
2017-08-14T20:17:32.920Z,8.00
2017-08-14T20:20:01.325Z,6.07
2017-08-14T20:22:29.686Z,8.17
2017-08-14T20:24:58.076Z,8.30
2017-08-14T20:27:26.437Z,4.00
2017-08-14T20:29:54.827Z,7.20
2017-08-14T20:32:23.178Z,5.10
2017-08-14T20:34:51.574Z,5.30
2017-08-14T20:37:19.909Z,4.73
2017-08-14T20:39:48.305Z,4.60
2017-08-14T20:42:16.791Z,3.97
2017-08-14T20:44:45.158Z,4.60
2017-08-14T20:47:13.549Z,6.20
2017-08-14T20:49:42.148Z,9.03
2017-08-14T20:52:10.533Z,8.70
2017-08-14T20:54:38.922Z,6.73
2017-08-14T20:57:08.351Z,8.20
2017-08-14T20:59:36.765Z,5.90
2017-08-14T21:02:05.127Z,5.10
2017-08-14T21:04:33.535Z,7.57
2017-08-14T21:07:01.965Z,5.60
2017-08-14T21:09:30.348Z,7.80
2017-08-14T21:11:58.792Z,7.90
2017-08-14T21:14:27.193Z,8.97
2017-08-14T21:16:55.588Z,5.97
2017-08-14T21:19:23.940Z,7.03
2017-08-14T21:21:52.314Z,5.97
2017-08-14T21:24:20.695Z,6.57
2017-08-14T21:26:49.058Z,6.10
2017-08-14T21:29:19.786Z,11.20
2017-08-14T21:31:48.135Z,7.70
2017-08-14T21:34:16.500Z,9.40
2017-08-14T21:36:44.851Z,8.27
2017-08-14T21:39:14.032Z,13.33
2017-08-14T21:41:42.434Z,7.93
2017-08-14T21:44:11.539Z,8.70
2017-08-14T21:46:39.936Z,8.60
2017-08-14T21:49:08.292Z,7.30
2017-08-14T21:51:36.713Z,8.00
2017-08-14T21:54:05.076Z,8.70
2017-08-14T21:56:33.428Z,5.77
2017-08-14T21:59:01.847Z,10.73
2017-08-14T22:01:30.241Z,6.53
2017-08-14T22:03:58.782Z,9.13
2017-08-14T22:06:27.142Z,6.13
2017-08-14T22:08:55.602Z,7.87
2017-08-14T22:11:24.027Z,9.47
2017-08-14T22:13:52.913Z,11.97
2017-08-14T22:16:21.288Z,10.67
2017-08-14T22:18:50.269Z,5.27
2017-08-14T22:21:18.671Z,6.33
2017-08-14T22:23:47.018Z,8.00
2017-08-14T22:26:15.367Z,10.63
2017-08-14T22:28:43.759Z,10.30
2017-08-14T22:31:12.879Z,10.70
2017-08-14T22:33:41.300Z,15.23
2017-08-14T22:36:09.784Z,7.97
2017-08-14T22:38:42.450Z,6.23
2017-08-14T22:41:15.789Z,7.07
2017-08-14T22:43:44.149Z,12.73
2017-08-14T22:46:12.532Z,9.47
2017-08-14T22:48:40.895Z,11.50
2017-08-14T22:51:09.396Z,19.37
2017-08-14T22:53:37.749Z,10.20
2017-08-14T22:56:06.128Z,9.60
2017-08-14T22:58:34.484Z,9.73
2017-08-14T23:01:02.886Z,7.77
2017-08-14T23:03:31.252Z,8.20
2017-08-14T23:05:59.604Z,9.73
2017-08-14T23:08:27.981Z,9.00
2017-08-14T23:10:56.359Z,12.87
2017-08-14T23:13:24.770Z,11.33
2017-08-14T23:15:53.137Z,16.10
2017-08-14T23:18:22.422Z,19.30
2017-08-14T23:20:50.802Z,22.83
2017-08-14T23:23:19.153Z,23.77
2017-08-14T23:25:48.560Z,17.87
2017-08-14T23:28:17.061Z,23.63
2017-08-14T23:30:45.427Z,18.23
2017-08-14T23:33:13.808Z,14.90
2017-08-14T23:35:42.174Z,13.17
2017-08-14T23:38:10.626Z,15.03
2017-08-14T23:40:39.145Z,18.63
2017-08-14T23:43:07.621Z,22.60
2017-08-14T23:45:36.040Z,31.20
2017-08-14T23:48:04.418Z,24.00
2017-08-14T23:50:33.737Z,15.83
2017-08-14T23:53:02.213Z,27.67
2017-08-14T23:55:30.570Z,21.70
2017-08-14T23:57:58.963Z,19.87
